Time;durP1;ratioP1;P1;durP2;ratioP2;P2;SDS_P1;SDS_P2;PMS_P1;PMS_P2;Temp;Humidity;BMP_temperature;BMP_pressure;BME280_temperature;BME280_humidity;BME280_pressure;Samples;Min_cycle;Max_cycle;Signal;HPM_P1;HPM_P2
2022/09/13 00:01:03;;;;;;;6.63;3.80;;;24.10;66.20;;;;;;5051557;28;20208;-93
2022/09/13 00:03:32;;;;;;;8.53;3.90;;;24.20;66.50;;;;;;5058147;28;20207;-94
2022/09/13 00:06:08;;;;;;;11.60;5.73;;;24.10;66.40;;;;;;5035410;28;20210;-93
2022/09/13 00:08:39;;;;;;;8.83;4.37;;;24.10;66.80;;;;;;5053030;28;20277;-92
2022/09/13 00:11:08;;;;;;;10.47;5.50;;;24.10;66.70;;;;;;5051770;28;20273;-93
2022/09/13 00:13:36;;;;;;;5.40;3.87;;;24.10;66.60;;;;;;5057708;28;20584;-94
2022/09/13 00:16:05;;;;;;;9.57;4.60;;;24.10;66.50;;;;;;5055249;28;20201;-94
2022/09/13 00:18:36;;;;;;;7.27;3.87;;;24.10;66.60;;;;;;5056659;28;20683;-94
2022/09/13 00:21:15;;;;;;;9.27;4.13;;;24.10;66.90;;;;;;5056877;28;20295;-93
2022/09/13 00:23:46;;;;;;;7.60;4.10;;;24.10;67.30;;;;;;5049707;28;20672;-94
2022/09/13 00:26:22;;;;;;;11.03;5.60;;;24.10;67.80;;;;;;5055950;28;20262;-94
2022/09/13 00:28:51;;;;;;;7.67;4.33;;;24.10;67.50;;;;;;5054831;28;20572;-93
2022/09/13 00:31:19;;;;;;;10.20;5.47;;;24.10;67.40;;;;;;5055162;28;20200;-93
2022/09/13 00:34:05;;;;;;;6.20;4.20;;;24.10;67.30;;;;;;5055978;28;20607;-94
2022/09/13 00:36:33;;;;;;;8.33;4.73;;;24.10;68.10;;;;;;5050637;28;20266;-93
2022/09/13 00:39:01;;;;;;;7.30;4.67;;;24.10;67.00;;;;;;5054150;28;20701;-93
2022/09/13 00:41:30;;;;;;;8.53;5.00;;;24.10;67.00;;;;;;5044778;28;20207;-94
2022/09/13 00:43:59;;;;;;;11.03;6.17;;;24.10;67.20;;;;;;5041003;28;20725;-93
2022/09/13 00:46:34;;;;;;;8.93;5.87;;;24.00;67.20;;;;;;5058002;28;20548;-92
2022/09/13 00:49:24;;;;;;;10.17;4.73;;;24.00;67.70;;;;;;5051982;28;20282;-94
2022/09/13 00:51:57;;;;;;;8.00;4.97;;;24.00;68.10;;;;;;5055965;28;20207;-94
2022/09/13 00:54:37;;;;;;;8.30;5.53;;;24.00;68.10;;;;;;5044603;28;20226;-93
2022/09/13 00:57:07;;;;;;;10.83;5.70;;;24.00;68.40;;;;;;5053874;28;20202;-94
2022/09/13 01:02:52;;;;;;;5.57;4.17;;;23.90;68.40;;;;;;4993487;28;20292;-94
2022/09/13 01:05:35;;;;;;;13.60;6.57;;;23.90;68.70;;;;;;4998121;28;20676;-93
2022/09/13 01:08:09;;;;;;;10.90;6.23;;;23.90;68.90;;;;;;5039947;28;20214;-93
2022/09/13 01:10:40;;;;;;;7.97;5.30;;;23.90;69.40;;;;;;5043102;28;20544;-92
2022/09/13 01:13:16;;;;;;;9.03;5.27;;;23.80;68.40;;;;;;5048232;28;20230;-93
2022/09/13 01:15:45;;;;;;;6.53;4.60;;;23.80;68.80;;;;;;5037926;28;20238;-94
2022/09/13 01:18:14;;;;;;;7.27;5.10;;;23.80;68.70;;;;;;5043475;28;20285;-93
2022/09/13 01:21:04;;;;;;;10.60;6.00;;;23.80;69.40;;;;;;5034970;28;20207;-94
2022/09/13 01:23:54;;;;;;;10.93;5.33;;;23.80;69.00;;;;;;5032965;28;20239;-94
2022/09/13 01:27:06;;;;;;;9.13;5.43;;;23.80;69.10;;;;;;5039610;28;20212;-93
2022/09/13 01:30:18;;;;;;;9.87;5.67;;;23.80;69.30;;;;;;5007918;28;20216;-92
2022/09/13 01:33:39;;;;;;;8.33;5.37;;;23.80;69.30;;;;;;5025376;28;20214;-94
2022/09/13 01:36:32;;;;;;;9.60;5.63;;;23.80;69.30;;;;;;5063859;28;20200;-94
2022/09/13 01:39:08;;;;;;;7.43;4.70;;;23.80;69.40;;;;;;5059100;28;20330;-93
2022/09/13 01:41:57;;;;;;;7.37;5.23;;;23.70;69.90;;;;;;5064298;28;20230;-93
2022/09/13 01:44:39;;;;;;;10.43;5.37;;;23.70;69.50;;;;;;5059215;28;20223;-94
2022/09/13 01:47:19;;;;;;;10.00;5.00;;;23.70;69.30;;;;;;5044862;28;20320;-94
2022/09/13 01:50:06;;;;;;;8.57;5.70;;;23.70;69.70;;;;;;5056912;28;20214;-94
2022/09/13 01:52:42;;;;;;;6.07;4.73;;;23.70;70.10;;;;;;5057701;28;20677;-93
2022/09/13 01:55:22;;;;;;;9.47;5.53;;;23.60;70.00;;;;;;5056846;28;20629;-94
2022/09/13 01:57:56;;;;;;;10.67;5.70;;;23.60;69.80;;;;;;5069367;28;20230;-96
2022/09/13 02:00:32;;;;;;;11.80;6.23;;;23.60;69.90;;;;;;5073452;28;20214;-94
2022/09/13 02:03:06;;;;;;;7.00;4.27;;;23.60;70.20;;;;;;5060073;28;20239;-95
2022/09/13 02:05:46;;;;;;;8.00;5.00;;;23.60;70.30;;;;;;5076008;28;20203;-94
2022/09/13 02:08:19;;;;;;;8.10;5.57;;;23.60;70.50;;;;;;5075562;28;20211;-94
2022/09/13 02:11:06;;;;;;;8.97;5.87;;;23.60;70.30;;;;;;5044311;28;20192;-94
2022/09/13 02:13:46;;;;;;;16.83;7.70;;;23.60;70.70;;;;;;5060213;28;20215;-94
2022/09/13 02:16:20;;;;;;;8.47;5.70;;;23.60;70.40;;;;;;5075796;28;20210;-94
2022/09/13 02:18:53;;;;;;;9.57;6.40;;;23.50;70.20;;;;;;5065906;28;20597;-94
2022/09/13 02:21:32;;;;;;;8.07;5.63;;;23.50;70.30;;;;;;5065545;28;20227;-94
2022/09/13 02:24:04;;;;;;;8.17;5.23;;;23.60;70.90;;;;;;5049420;28;20192;-94
2022/09/13 02:26:36;;;;;;;6.37;5.13;;;23.50;70.70;;;;;;5067942;28;20200;-95
2022/09/13 02:29:16;;;;;;;8.30;5.00;;;23.60;70.80;;;;;;5074836;28;20207;-94
2022/09/13 02:31:51;;;;;;;6.00;4.43;;;23.50;71.20;;;;;;5070455;28;20235;-94
2022/09/13 02:34:23;;;;;;;7.43;5.80;;;23.50;71.00;;;;;;5072315;28;20215;-95
2022/09/13 02:37:00;;;;;;;6.47;5.07;;;23.50;71.00;;;;;;5059655;28;20200;-95
2022/09/13 02:39:31;;;;;;;9.40;5.80;;;23.50;71.30;;;;;;5067832;28;20227;-94
2022/09/13 02:42:11;;;;;;;6.77;4.80;;;23.50;71.30;;;;;;5058990;28;20205;-94
2022/09/13 02:44:42;;;;;;;10.90;5.90;;;23.50;71.80;;;;;;5044214;28;20232;-95
2022/09/13 02:47:27;;;;;;;7.07;4.33;;;23.50;71.50;;;;;;5058135;28;20223;-94
2022/09/13 02:50:01;;;;;;;7.33;5.33;;;23.40;71.70;;;;;;5040193;28;20208;-94
2022/09/13 02:52:47;;;;;;;10.27;5.70;;;23.40;71.70;;;;;;5043567;28;20291;-94
2022/09/13 02:55:19;;;;;;;9.23;5.57;;;23.50;72.40;;;;;;5056556;28;20769;-94
2022/09/13 02:58:00;;;;;;;9.03;5.27;;;23.50;71.80;;;;;;5056215;28;20238;-93
2022/09/13 03:00:30;;;;;;;10.30;5.50;;;23.40;72.90;;;;;;5058315;28;20204;-94
2022/09/13 03:03:03;;;;;;;5.93;4.90;;;23.40;72.10;;;;;;5060157;28;20230;-94
2022/09/13 03:05:30;;;;;;;10.17;5.17;;;23.50;72.40;;;;;;5038012;28;20219;-94
2022/09/13 03:08:00;;;;;;;7.30;5.70;;;23.40;72.30;;;;;;5042780;28;20223;-94
2022/09/13 03:10:35;;;;;;;7.33;5.00;;;23.40;72.70;;;;;;5056958;28;20273;-94
2022/09/13 03:13:45;;;;;;;11.97;5.77;;;23.40;72.70;;;;;;5056158;28;20744;-94
2022/09/13 03:16:26;;;;;;;10.50;6.70;;;23.40;73.40;;;;;;5041570;28;21072;-93
2022/09/13 03:19:13;;;;;;;7.37;5.50;;;23.40;73.30;;;;;;5039008;28;20203;-92
2022/09/13 03:22:08;;;;;;;6.07;4.70;;;23.40;73.50;;;;;;5053688;28;20644;-93
2022/09/13 03:24:49;;;;;;;7.73;5.40;;;23.40;73.90;;;;;;5040001;28;20236;-94
2022/09/13 03:27:24;;;;;;;16.43;7.90;;;23.40;73.80;;;;;;5054380;28;20210;-94
2022/09/13 03:29:58;;;;;;;7.70;5.70;;;23.40;73.60;;;;;;5060176;28;20203;-92
2022/09/13 03:32:33;;;;;;;13.33;7.10;;;23.40;73.60;;;;;;5061986;28;20216;-94
2022/09/13 03:35:17;;;;;;;8.47;6.70;;;23.40;73.60;;;;;;5059671;28;20224;-93
2022/09/13 03:37:55;;;;;;;5.97;5.27;;;23.40;74.00;;;;;;5043547;28;20798;-94
2022/09/13 03:40:34;;;;;;;9.63;6.07;;;23.40;73.90;;;;;;5037489;28;20227;-94
2022/09/13 03:43:12;;;;;;;8.63;6.27;;;23.30;73.90;;;;;;5039555;28;20269;-94
2022/09/13 03:45:50;;;;;;;8.37;6.23;;;23.30;74.10;;;;;;5048745;28;20223;-91
2022/09/13 03:48:19;;;;;;;8.40;5.63;;;23.30;74.00;;;;;;5056485;28;20215;-93
2022/09/13 03:50:48;;;;;;;11.33;6.87;;;23.30;73.90;;;;;;5064751;28;20201;-93
2022/09/13 03:53:20;;;;;;;11.10;6.43;;;23.30;74.00;;;;;;5061171;28;20206;-92
2022/09/13 03:55:48;;;;;;;11.20;6.50;;;23.30;74.20;;;;;;5060040;28;20254;-91
2022/09/13 03:58:19;;;;;;;10.63;6.90;;;23.30;74.20;;;;;;5041320;28;20205;-94
2022/09/13 04:00:48;;;;;;;11.20;7.07;;;23.30;74.40;;;;;;5041683;28;20206;-93
2022/09/13 04:03:19;;;;;;;8.50;6.03;;;23.30;74.20;;;;;;5044296;28;20205;-93
2022/09/13 04:05:46;;;;;;;13.37;7.87;;;23.30;74.20;;;;;;5046591;28;20200;-93
2022/09/13 04:08:13;;;;;;;11.20;7.03;;;23.30;74.20;;;;;;5051723;28;20201;-94
2022/09/13 04:10:55;;;;;;;9.07;6.07;;;23.30;74.20;;;;;;5064107;28;20267;-94
2022/09/13 04:13:22;;;;;;;9.17;5.93;;;23.30;75.00;;;;;;5056888;28;20277;-94
2022/09/13 04:15:49;;;;;;;13.30;7.60;;;23.30;74.20;;;;;;5059063;28;20255;-95
2022/09/13 04:18:27;;;;;;;12.93;7.23;;;23.30;74.40;;;;;;5051435;28;20230;-94
2022/09/13 04:20:55;;;;;;;12.20;6.60;;;23.30;75.00;;;;;;5061164;28;20213;-93
2022/09/13 04:23:22;;;;;;;8.50;6.40;;;23.30;74.30;;;;;;5045931;28;20203;-94
2022/09/13 04:25:51;;;;;;;7.40;5.67;;;23.30;74.30;;;;;;5053931;28;20204;-94
2022/09/13 04:28:21;;;;;;;13.43;7.77;;;23.20;74.50;;;;;;5044989;28;20247;-93
2022/09/13 04:30:50;;;;;;;12.63;7.67;;;23.20;74.90;;;;;;5053635;28;20243;-92
2022/09/13 04:33:18;;;;;;;9.97;6.37;;;23.30;75.00;;;;;;5037615;28;20197;-93
2022/09/13 04:35:46;;;;;;;10.07;6.47;;;23.20;74.80;;;;;;5048320;28;20238;-92
2022/09/13 04:38:13;;;;;;;19.10;8.37;;;23.20;75.50;;;;;;5047685;28;20236;-94
2022/09/13 04:40:53;;;;;;;8.50;5.77;;;23.20;74.50;;;;;;5043956;28;20283;-93
2022/09/13 04:43:23;;;;;;;8.97;6.23;;;23.20;75.20;;;;;;5048149;28;20238;-93
2022/09/13 04:45:51;;;;;;;8.13;6.30;;;23.20;74.90;;;;;;5053700;28;20204;-94
2022/09/13 04:48:20;;;;;;;10.33;6.23;;;23.20;74.90;;;;;;5055134;28;20204;-92
2022/09/13 04:50:48;;;;;;;8.40;5.67;;;23.20;75.20;;;;;;5054003;28;20200;-93
2022/09/13 04:53:15;;;;;;;11.53;5.73;;;23.20;75.20;;;;;;5054599;28;20253;-94
2022/09/13 04:55:42;;;;;;;8.10;5.80;;;23.20;75.30;;;;;;5026826;28;20766;-94
2022/09/13 04:58:11;;;;;;;11.73;6.70;;;23.20;75.40;;;;;;5044557;28;20202;-93
2022/09/13 05:00:41;;;;;;;10.73;5.77;;;23.20;75.80;;;;;;5045971;28;20215;-93
2022/09/13 05:03:11;;;;;;;9.63;6.00;;;23.20;75.50;;;;;;5050135;28;20971;-93
2022/09/13 05:05:40;;;;;;;8.50;5.77;;;23.20;75.50;;;;;;5050204;28;20699;-92
2022/09/13 05:08:07;;;;;;;9.53;5.70;;;23.20;75.60;;;;;;5050546;28;20293;-92
2022/09/13 05:10:37;;;;;;;13.00;5.53;;;23.20;75.40;;;;;;5049716;28;20235;-94
2022/09/13 05:13:25;;;;;;;11.10;6.20;;;23.20;75.80;;;;;;5056080;28;20220;-94
2022/09/13 05:15:59;;;;;;;11.83;6.23;;;23.20;76.00;;;;;;5075347;22;20577;-94
2022/09/13 05:18:27;;;;;;;14.20;7.53;;;23.20;76.20;;;;;;5053424;28;20209;-94
2022/09/13 05:20:55;;;;;;;7.37;5.23;;;23.20;75.70;;;;;;5053230;28;20199;-93
2022/09/13 05:23:24;;;;;;;7.90;5.27;;;23.20;76.00;;;;;;5056356;28;20212;-94
2022/09/13 05:25:54;;;;;;;10.20;6.13;;;23.10;75.80;;;;;;5056908;28;20207;-94
2022/09/13 05:28:23;;;;;;;9.07;5.97;;;23.10;75.90;;;;;;5060726;28;20297;-94
2022/09/13 05:31:07;;;;;;;12.97;7.23;;;23.10;76.50;;;;;;5062393;28;20199;-94
2022/09/13 05:33:36;;;;;;;11.50;7.13;;;23.10;76.20;;;;;;5056887;28;20209;-93
2022/09/13 05:36:09;;;;;;;10.33;6.47;;;23.20;75.90;;;;;;5051470;28;20224;-94
2022/09/13 05:38:37;;;;;;;10.27;6.10;;;23.10;76.10;;;;;;5035228;28;20682;-94
2022/09/13 05:41:09;;;;;;;10.17;6.60;;;23.10;75.80;;;;;;5035851;28;20204;-94
2022/09/13 05:43:37;;;;;;;13.63;7.93;;;23.10;76.10;;;;;;5039507;28;20216;-93
2022/09/13 05:46:07;;;;;;;10.67;7.17;;;23.10;75.90;;;;;;5023943;28;20197;-94
2022/09/13 05:48:42;;;;;;;9.73;6.33;;;23.10;76.20;;;;;;5029301;28;20622;-94
2022/09/13 05:51:11;;;;;;;11.17;6.83;;;23.10;76.60;;;;;;5036384;28;20216;-94
2022/09/13 05:53:49;;;;;;;10.20;6.23;;;23.10;76.40;;;;;;5037591;28;20197;-94
2022/09/13 05:56:18;;;;;;;8.43;5.50;;;23.10;77.20;;;;;;5040978;28;20236;-94
2022/09/13 05:58:48;;;;;;;9.70;6.33;;;23.00;76.50;;;;;;5041955;28;20222;-94
2022/09/13 06:01:19;;;;;;;9.67;6.03;;;23.00;76.70;;;;;;5036452;28;20296;-93
2022/09/13 06:03:48;;;;;;;11.43;6.63;;;23.00;77.10;;;;;;5043714;28;20193;-95
2022/09/13 06:06:20;;;;;;;8.33;5.70;;;23.00;77.00;;;;;;5024621;28;20235;-95
2022/09/13 06:08:48;;;;;;;9.53;5.93;;;23.00;77.50;;;;;;5043893;28;20204;-94
2022/09/13 06:11:16;;;;;;;13.23;6.63;;;23.00;77.50;;;;;;5029460;28;20731;-94
2022/09/13 06:13:46;;;;;;;10.00;6.43;;;23.00;77.30;;;;;;5042022;28;20227;-94
2022/09/13 06:16:16;;;;;;;13.73;7.27;;;23.00;77.40;;;;;;5063968;28;20279;-94
2022/09/13 06:19:07;;;;;;;10.07;6.17;;;23.00;77.70;;;;;;5058430;28;20189;-95
2022/09/13 06:24:46;;;;;;;12.07;6.17;;;23.10;78.50;;;;;;5054896;28;20192;-94
2022/09/13 06:27:14;;;;;;;13.07;7.73;;;23.10;79.10;;;;;;5057323;28;20206;-94
2022/09/13 06:29:43;;;;;;;10.33;7.33;;;23.10;78.90;;;;;;5045219;28;20268;-95
2022/09/13 06:32:14;;;;;;;8.00;5.53;;;23.10;78.80;;;;;;5045628;28;20205;-94
2022/09/13 06:34:44;;;;;;;10.10;6.20;;;23.10;79.20;;;;;;5044943;28;20672;-94
2022/09/13 06:37:15;;;;;;;13.27;6.77;;;23.10;79.70;;;;;;5066299;28;20204;-94
2022/09/13 06:39:47;;;;;;;7.93;5.80;;;23.10;79.50;;;;;;5069257;28;20220;-95
2022/09/13 06:42:26;;;;;;;11.10;6.90;;;23.10;80.30;;;;;;5039638;28;20277;-94
2022/09/13 06:47:43;;;;;;;7.27;5.50;;;23.10;80.00;;;;;;5063128;28;20218;-95
2022/09/13 06:50:31;;;;;;;9.17;5.53;;;23.20;80.40;;;;;;5070068;28;20196;-95
2022/09/13 06:53:02;;;;;;;8.27;5.60;;;23.20;80.50;;;;;;5052968;28;20238;-95
2022/09/13 06:55:30;;;;;;;9.00;6.77;;;23.20;79.90;;;;;;5057042;28;20232;-95
2022/09/13 06:58:33;;;;;;;14.67;6.90;;;23.30;79.70;;;;;;5063883;28;20214;-95
2022/09/13 07:01:52;;;;;;;15.43;7.80;;;23.30;80.60;;;;;;5042593;28;20205;-95
2022/09/13 07:04:53;;;;;;;13.73;7.47;;;23.30;80.60;;;;;;5059067;28;20218;-96
2022/09/13 07:07:25;;;;;;;9.50;6.47;;;23.30;79.80;;;;;;5040551;28;20236;-95
2022/09/13 07:13:21;;;;;;;11.97;7.53;;;23.40;80.70;;;;;;5046451;28;20200;-96
2022/09/13 07:16:31;;;;;;;11.83;7.60;;;23.40;79.80;;;;;;5061798;28;20277;-95
2022/09/13 07:19:05;;;;;;;9.53;6.70;;;23.50;80.80;;;;;;5062665;28;20259;-96
2022/09/13 07:21:48;;;;;;;12.93;7.77;;;23.50;80.30;;;;;;5061787;28;20211;-96
2022/09/13 07:24:20;;;;;;;10.63;7.27;;;23.60;80.90;;;;;;5061678;28;20272;-95
2022/09/13 07:26:57;;;;;;;8.53;7.03;;;23.60;80.60;;;;;;5068213;28;20195;-96
2022/09/13 07:29:31;;;;;;;9.70;6.30;;;23.60;80.80;;;;;;5043644;28;20200;-96
2022/09/13 07:35:15;;;;;;;14.63;8.87;;;23.70;81.10;;;;;;4947394;29;20247;-95
2022/09/13 07:37:57;;;;;;;9.97;6.80;;;23.80;80.90;;;;;;5024993;28;20805;-95
2022/09/13 07:40:38;;;;;;;10.30;7.57;;;23.80;81.60;;;;;;5061579;28;20207;-95
2022/09/13 07:46:00;;;;;;;12.27;7.63;;;24.00;81.90;;;;;;5060419;28;20211;-95
2022/09/13 07:48:29;;;;;;;19.93;8.93;;;24.00;81.60;;;;;;5060342;28;20520;-94
2022/09/13 07:51:01;;;;;;;10.83;7.40;;;24.10;82.20;;;;;;5060790;28;20207;-95
2022/09/13 07:53:40;;;;;;;14.70;7.87;;;24.10;83.00;;;;;;5061532;28;20217;-95
2022/09/13 07:56:36;;;;;;;13.07;8.60;;;24.20;83.70;;;;;;5060644;28;20575;-96
2022/09/13 07:59:23;;;;;;;12.50;7.73;;;24.20;83.90;;;;;;5071556;28;20211;-95
2022/09/13 08:01:51;;;;;;;9.13;6.77;;;24.30;84.40;;;;;;5055856;28;20674;-95
2022/09/13 08:04:37;;;;;;;11.43;6.83;;;24.40;83.80;;;;;;5045922;28;20214;-96
2022/09/13 08:10:48;;;;;;;11.37;7.30;;;24.50;84.20;;;;;;5046343;28;20223;-96
2022/09/13 08:13:18;;;;;;;10.97;7.57;;;24.60;85.00;;;;;;5053695;28;20200;-95
2022/09/13 08:15:49;;;;;;;9.17;6.23;;;24.70;83.90;;;;;;5041939;28;20228;-95
2022/09/13 08:18:21;;;;;;;14.37;8.27;;;24.80;83.30;;;;;;5044418;28;20212;-95
2022/09/13 08:20:50;;;;;;;10.97;7.43;;;24.80;83.20;;;;;;5044747;28;20201;-95
2022/09/13 08:26:03;;;;;;;11.40;5.97;;;25.00;82.40;;;;;;5047592;28;20239;-95
2022/09/13 08:28:37;;;;;;;14.37;6.80;;;25.10;82.00;;;;;;5064599;28;20208;-95
2022/09/13 08:31:32;;;;;;;19.47;7.80;;;25.10;82.30;;;;;;5065563;28;20227;-96
2022/09/13 08:34:33;;;;;;;;;;;;;;;;;;;;;
2022/09/13 08:37:06;;;;;;;6.87;4.53;;;25.30;82.60;;;;;;5063219;28;20239;-96
2022/09/13 08:39:38;;;;;;;10.93;5.97;;;25.30;82.20;;;;;;5063882;28;20220;-96
2022/09/13 08:42:58;;;;;;;9.23;5.07;;;25.40;82.70;;;;;;5048655;28;20319;-96
2022/09/13 08:48:55;;;;;;;6.73;3.73;;;25.60;82.90;;;;;;5053888;28;20202;-96
2022/09/13 08:54:33;;;;;;;11.00;4.30;;;25.80;82.00;;;;;;5065328;28;20207;-95
2022/09/13 08:57:22;;;;;;;6.63;3.80;;;25.90;81.70;;;;;;5052476;28;20227;-96
2022/09/13 08:59:58;;;;;;;6.47;3.90;;;26.00;81.20;;;;;;5062513;28;20196;-92
2022/09/13 09:02:57;;;;;;;8.87;4.33;;;26.10;80.00;;;;;;5053534;28;20226;-96
2022/09/13 09:05:53;;;;;;;7.80;3.73;;;26.20;79.40;;;;;;5064952;28;20226;-95
2022/09/13 09:08:47;;;;;;;9.93;3.63;;;26.30;79.30;;;;;;5043266;28;20654;-95
2022/09/13 09:14:51;;;;;;;5.33;3.60;;;26.50;77.80;;;;;;5043846;28;20227;-95
2022/09/13 09:17:23;;;;;;;4.90;2.80;;;26.50;77.00;;;;;;4985844;28;20221;-95
2022/09/13 09:19:57;;;;;;;8.93;2.57;;;26.60;77.10;;;;;;5027038;28;20228;-93
2022/09/13 09:22:30;;;;;;;6.17;3.07;;;26.70;76.70;;;;;;5039215;28;20211;-95
2022/09/13 09:25:02;;;;;;;6.67;3.47;;;26.70;76.50;;;;;;5039560;28;20235;-95
2022/09/13 09:27:35;;;;;;;6.43;3.27;;;26.80;76.10;;;;;;5044635;28;20215;-95
2022/09/13 09:30:03;;;;;;;3.87;2.00;;;26.80;75.70;;;;;;5044124;28;20217;-96
2022/09/13 09:33:19;;;;;;;9.13;3.30;;;26.90;76.20;;;;;;5043944;28;20211;-96
2022/09/13 09:36:23;;;;;;;6.40;2.60;;;27.00;75.50;;;;;;4982889;28;20223;-96
2022/09/13 09:38:52;;;;;;;9.53;4.37;;;27.10;74.60;;;;;;4975567;28;20699;-95
2022/09/13 09:42:17;;;;;;;4.47;2.40;;;27.20;74.30;;;;;;5044623;28;20205;-95
2022/09/13 09:44:56;;;;;;;3.63;2.13;;;27.20;73.00;;;;;;5035327;28;20228;-95
2022/09/13 09:48:02;;;;;;;5.30;2.37;;;27.30;73.30;;;;;;5045003;28;20307;-96
2022/09/13 09:50:34;;;;;;;6.27;2.67;;;27.30;72.50;;;;;;5009332;28;20220;-96
2022/09/13 09:53:47;;;;;;;55.87;8.40;;;27.40;73.00;;;;;;5045916;28;20224;-96
2022/09/13 09:56:27;;;;;;;7.30;2.57;;;27.40;72.50;;;;;;5042309;28;20225;-95
2022/09/13 09:59:02;;;;;;;6.23;2.33;;;27.40;72.10;;;;;;5038021;28;20231;-96
2022/09/13 10:04:28;;;;;;;5.23;2.43;;;27.40;72.30;;;;;;5029508;28;20288;-96
2022/09/13 10:07:12;;;;;;;6.20;2.83;;;27.40;72.50;;;;;;5018262;28;20205;-96
2022/09/13 10:13:24;;;;;;;4.13;2.23;;;27.50;72.40;;;;;;5090004;22;20247;-95
2022/09/13 10:18:39;;;;;;;3.57;2.30;;;27.70;72.40;;;;;;5091244;22;20243;-94
2022/09/13 10:24:41;;;;;;;1.83;1.53;;;28.00;71.50;;;;;;5042531;28;20217;-96
2022/09/13 10:30:35;;;;;;;6.57;3.27;;;28.20;70.00;;;;;;5145752;22;20234;-95
2022/09/13 10:36:16;;;;;;;4.77;2.23;;;28.50;69.50;;;;;;5422411;22;20232;-96
2022/09/13 10:39:06;;;;;;;4.97;2.33;;;28.60;68.40;;;;;;5054524;28;20233;-96
2022/09/13 10:41:37;;;;;;;4.30;2.37;;;28.60;68.10;;;;;;5041393;28;20204;-96
2022/09/13 10:44:32;;;;;;;4.33;2.43;;;28.70;68.80;;;;;;5053305;28;20204;-94
2022/09/13 10:47:07;;;;;;;5.73;2.97;;;28.70;67.90;;;;;;5030149;28;20224;-94
2022/09/13 10:49:48;;;;;;;6.57;3.33;;;28.80;67.90;;;;;;5022829;28;20248;-95
2022/09/13 10:52:34;;;;;;;11.53;4.07;;;28.80;67.60;;;;;;5041207;28;20205;-95
2022/09/13 10:55:32;;;;;;;4.60;2.53;;;28.80;67.30;;;;;;5042672;28;20235;-95
2022/09/13 10:58:21;;;;;;;5.10;2.80;;;28.80;67.40;;;;;;5041551;28;20259;-96
2022/09/13 11:07:44;;;;;;;6.03;3.40;;;28.90;66.70;;;;;;5033339;28;20224;-93
2022/09/13 11:14:31;;;;;;;6.50;3.13;;;28.90;67.00;;;;;;5039499;28;20265;-94
2022/09/13 11:17:17;;;;;;;4.03;2.50;;;29.00;66.70;;;;;;5044333;28;20294;-94
2022/09/13 11:20:04;;;;;;;5.10;2.80;;;29.00;66.90;;;;;;5021958;28;20264;-95
2022/09/13 11:23:15;;;;;;;5.37;2.67;;;29.00;66.70;;;;;;5032312;28;20208;-94
2022/09/13 11:26:16;;;;;;;2.87;2.00;;;29.00;66.40;;;;;;5001007;28;20264;-95
2022/09/13 11:28:55;;;;;;;3.93;2.23;;;29.00;66.60;;;;;;4970359;28;20214;-95
2022/09/13 11:32:08;;;;;;;3.53;2.57;;;29.10;66.50;;;;;;5054302;28;20250;-95
2022/09/13 11:35:21;;;;;;;8.00;3.17;;;29.10;66.30;;;;;;5041790;28;20574;-96
2022/09/13 11:37:58;;;;;;;6.83;3.20;;;29.10;65.90;;;;;;5049756;28;20258;-94
2022/09/13 11:40:47;;;;;;;4.20;3.03;;;29.10;65.90;;;;;;5061610;28;20194;-95
2022/09/13 11:43:32;;;;;;;6.67;3.90;;;29.10;65.20;;;;;;5065159;28;20200;-94
2022/09/13 11:46:12;;;;;;;7.13;3.60;;;29.10;65.30;;;;;;5051420;28;20201;-95
2022/09/13 11:49:27;;;;;;;4.23;2.63;;;29.10;65.40;;;;;;5059341;28;20295;-96
2022/09/13 11:52:08;;;;;;;4.70;2.37;;;29.10;65.00;;;;;;5063691;28;20195;-95
2022/09/13 11:55:02;;;;;;;5.17;2.40;;;29.00;65.40;;;;;;5080020;28;20234;-94
2022/09/13 12:00:39;;;;;;;5.97;2.33;;;29.00;65.10;;;;;;5067100;28;20263;-95
2022/09/13 12:03:17;;;;;;;4.60;2.23;;;28.90;64.80;;;;;;5053632;28;20208;-95
2022/09/13 12:05:49;;;;;;;4.63;2.60;;;28.80;64.90;;;;;;5052434;28;20203;-95
2022/09/13 12:08:24;;;;;;;5.33;2.77;;;28.80;65.40;;;;;;5081593;28;20276;-96
2022/09/13 12:10:56;;;;;;;13.67;4.83;;;28.70;65.30;;;;;;5086884;28;20241;-95
2022/09/13 12:13:31;;;;;;;5.77;3.30;;;28.70;65.70;;;;;;5053779;28;20205;-96
2022/09/13 12:16:26;;;;;;;8.47;3.00;;;28.70;65.60;;;;;;5041692;28;20235;-96
2022/09/13 12:19:02;;;;;;;6.37;3.33;;;28.60;65.40;;;;;;5054553;28;20208;-94
2022/09/13 12:24:59;;;;;;;4.77;2.47;;;28.50;65.50;;;;;;5036821;28;20201;-95
2022/09/13 12:27:34;;;;;;;17.40;3.73;;;28.40;66.20;;;;;;5048374;28;20266;-95
2022/09/13 12:30:38;;;;;;;8.47;2.73;;;28.40;66.40;;;;;;5056858;28;20207;-94
2022/09/13 12:33:39;;;;;;;6.77;3.10;;;28.40;68.00;;;;;;5068232;28;20213;-96
2022/09/13 12:36:25;;;;;;;5.50;2.97;;;28.30;67.60;;;;;;5035058;28;20311;-96
2022/09/13 12:39:26;;;;;;;4.53;2.80;;;28.30;67.40;;;;;;5036242;28;20224;-96
2022/09/13 12:45:58;;;;;;;10.10;4.13;;;28.20;68.00;;;;;;5046735;28;20290;-96
2022/09/13 12:49:05;;;;;;;7.43;3.47;;;28.20;68.40;;;;;;4967804;28;20216;-95
2022/09/13 12:51:48;;;;;;;6.93;3.57;;;28.00;68.70;;;;;;5036696;28;20200;-96
2022/09/13 12:54:48;;;;;;;7.17;3.13;;;28.00;69.00;;;;;;5036270;28;20215;-96
2022/09/13 12:57:34;;;;;;;5.47;3.00;;;28.00;69.30;;;;;;5025070;28;20612;-96
2022/09/13 13:00:20;;;;;;;5.27;2.97;;;27.90;69.00;;;;;;5051974;28;20211;-96
2022/09/13 13:03:04;;;;;;;3.73;2.43;;;27.90;69.40;;;;;;5058313;28;20228;-96
2022/09/13 13:05:46;;;;;;;9.73;4.23;;;27.80;69.10;;;;;;5064321;28;20191;-95
2022/09/13 13:08:28;;;;;;;6.03;3.17;;;27.80;69.70;;;;;;5067129;28;20664;-95
2022/09/13 13:11:11;;;;;;;8.93;3.50;;;27.80;69.60;;;;;;5074423;28;20248;-96
2022/09/13 13:13:40;;;;;;;7.87;3.27;;;27.80;69.70;;;;;;5070776;28;20226;-96
2022/09/13 13:16:40;;;;;;;7.73;3.70;;;27.70;69.20;;;;;;5075301;28;20210;-96
2022/09/13 13:19:30;;;;;;;6.77;3.40;;;27.70;69.70;;;;;;5035900;28;20204;-95
2022/09/13 13:22:38;;;;;;;4.33;2.80;;;27.60;69.50;;;;;;5052137;28;20211;-96
2022/09/13 13:25:35;;;;;;;9.67;3.23;;;27.50;69.80;;;;;;5038579;28;20212;-96
2022/09/13 13:28:04;;;;;;;5.47;2.47;;;27.50;69.40;;;;;;5052422;28;20199;-95
2022/09/13 13:30:52;;;;;;;5.37;2.67;;;27.40;69.00;;;;;;5076936;28;20204;-96
2022/09/13 13:33:46;;;;;;;12.53;4.57;;;27.40;69.30;;;;;;5070369;28;20222;-95
2022/09/13 13:36:23;;;;;;;12.03;3.83;;;27.30;69.40;;;;;;5070041;28;20731;-96
2022/09/13 13:39:00;;;;;;;7.43;3.60;;;27.20;69.30;;;;;;5044609;28;20582;-95
2022/09/13 13:45:17;;;;;;;3.70;2.03;;;27.10;70.10;;;;;;5011320;28;20266;-95
2022/09/13 13:48:10;;;;;;;7.60;3.30;;;27.10;69.90;;;;;;5039271;28;20684;-95
2022/09/13 13:51:11;;;;;;;8.83;3.30;;;27.00;69.90;;;;;;5033094;28;20211;-95
2022/09/13 13:53:45;;;;;;;10.33;3.33;;;27.00;70.20;;;;;;5036956;28;20204;-96
2022/09/13 13:56:34;;;;;;;6.93;2.90;;;26.90;70.10;;;;;;5038686;28;20205;-95
2022/09/13 13:59:16;;;;;;;9.50;2.40;;;26.90;70.40;;;;;;5040584;28;20235;-95
2022/09/13 14:02:32;;;;;;;14.67;3.43;;;26.80;70.70;;;;;;5046978;28;20838;-95
2022/09/13 14:05:11;;;;;;;7.47;2.73;;;26.70;71.00;;;;;;5031273;28;20219;-96
2022/09/13 14:11:29;;;;;;;;;;;;;;;;;;;;;
2022/09/13 14:14:16;;;;;;;7.43;3.33;;;26.60;71.10;;;;;;5039351;28;20196;-96
2022/09/13 14:16:53;;;;;;;4.50;2.50;;;26.60;71.00;;;;;;5046225;28;20254;-96
2022/09/13 14:19:27;;;;;;;6.33;2.70;;;26.60;71.20;;;;;;5031075;28;20210;-95
2022/09/13 14:22:23;;;;;;;5.10;2.77;;;26.60;71.00;;;;;;5039069;28;20620;-94
2022/09/13 14:24:52;;;;;;;6.97;3.07;;;26.50;71.30;;;;;;5005810;28;20209;-95
2022/09/13 14:27:27;;;;;;;11.80;3.33;;;26.50;70.90;;;;;;5045209;28;20211;-94
2022/09/13 14:30:35;;;;;;;7.03;2.87;;;26.40;71.50;;;;;;5042001;28;20201;-95
2022/09/13 14:33:04;;;;;;;3.90;1.90;;;26.40;71.40;;;;;;5043773;28;20196;-94
2022/09/13 14:35:40;;;;;;;6.03;2.20;;;26.40;71.30;;;;;;5045477;28;20205;-96
2022/09/13 14:38:18;;;;;;;8.43;2.77;;;26.30;72.30;;;;;;5061342;28;20273;-96
2022/09/13 14:41:28;;;;;;;8.23;3.20;;;26.20;71.40;;;;;;5065608;28;20217;-96
2022/09/13 14:44:15;;;;;;;10.67;4.40;;;26.10;71.40;;;;;;5074450;28;20204;-95
2022/09/13 14:46:51;;;;;;;7.37;2.90;;;26.10;71.50;;;;;;5065316;28;20207;-94
2022/09/13 14:49:35;;;;;;;6.93;2.67;;;26.00;71.50;;;;;;5071025;28;20199;-96
2022/09/13 14:52:21;;;;;;;8.57;2.50;;;26.00;72.00;;;;;;5063939;28;20207;-96
2022/09/13 14:55:13;;;;;;;6.07;2.57;;;25.90;71.80;;;;;;5062682;28;20214;-95
2022/09/13 15:00:53;;;;;;;6.27;2.07;;;25.80;72.20;;;;;;5048844;28;20202;-95
2022/09/13 15:06:37;;;;;;;6.37;2.10;;;25.70;71.70;;;;;;5077575;28;20271;-96
2022/09/13 15:09:35;;;;;;;7.30;3.13;;;25.70;72.40;;;;;;5064420;28;20205;-96
2022/09/13 15:12:04;;;;;;;9.57;3.27;;;25.70;72.20;;;;;;5059177;28;20668;-96
2022/09/13 15:14:43;;;;;;;9.43;2.83;;;25.60;72.20;;;;;;5073577;28;20208;-95
2022/09/13 15:17:14;;;;;;;7.00;2.37;;;25.60;72.30;;;;;;5055330;28;20223;-96